Time;durP1;ratioP1;P1;durP2;ratioP2;P2;SDS_P1;SDS_P2;PMS_P1;PMS_P2;Temp;Humidity;BMP_temperature;BMP_pressure;BME280_temperature;BME280_humidity;BME280_pressure;Samples;Min_cycle;Max_cycle;Signal;HPM_P1;HPM_P2
2023/06/04 00:02:01;;;;;;;2.60;1.60;;;11.50;45.30;;;;;;5053046;28;20472;-59
2023/06/04 00:04:28;;;;;;;2.30;1.80;;;11.40;45.40;;;;;;5053290;28;20445;-60
2023/06/04 00:06:56;;;;;;;2.57;1.97;;;11.40;45.80;;;;;;5053294;28;20436;-59
2023/06/04 00:09:23;;;;;;;1.70;1.50;;;11.40;46.00;;;;;;5052956;28;20451;-60
2023/06/04 00:11:50;;;;;;;3.07;1.53;;;11.40;46.20;;;;;;5052857;28;20460;-58
2023/06/04 00:14:17;;;;;;;2.60;1.50;;;11.40;46.50;;;;;;5053324;28;20455;-59
2023/06/04 00:16:44;;;;;;;3.70;2.20;;;11.30;46.60;;;;;;5052253;28;20571;-59
2023/06/04 00:19:11;;;;;;;1.90;1.50;;;11.30;46.80;;;;;;5052882;28;20444;-59
2023/06/04 00:21:37;;;;;;;2.17;1.97;;;11.20;47.00;;;;;;5052652;28;20476;-58
2023/06/04 00:24:06;;;;;;;5.43;2.47;;;11.20;47.20;;;;;;5052893;28;20444;-59
2023/06/04 00:26:33;;;;;;;2.10;1.53;;;11.20;47.50;;;;;;5053896;28;20445;-59
2023/06/04 00:29:02;;;;;;;1.73;1.40;;;11.10;47.50;;;;;;5057191;28;21052;-60
2023/06/04 00:31:28;;;;;;;2.77;2.10;;;11.10;47.70;;;;;;5056547;28;20464;-59
2023/06/04 00:33:55;;;;;;;2.90;2.17;;;11.10;47.80;;;;;;5056623;28;20439;-58
2023/06/04 00:36:22;;;;;;;8.57;5.80;;;11.10;48.10;;;;;;5056959;28;20790;-59
2023/06/04 00:38:49;;;;;;;4.50;2.40;;;11.10;48.20;;;;;;5056600;28;20470;-60
2023/06/04 00:41:17;;;;;;;4.30;3.40;;;11.00;48.30;;;;;;5056524;28;20464;-60
2023/06/04 00:43:45;;;;;;;2.33;1.90;;;10.90;48.40;;;;;;5056365;28;20444;-60
2023/06/04 00:46:17;;;;;;;6.23;4.57;;;10.90;48.60;;;;;;5056522;28;20624;-60
2023/06/04 00:48:44;;;;;;;2.45;2.25;;;10.90;48.70;;;;;;5056183;28;20432;-60
2023/06/04 00:51:12;;;;;;;4.50;2.58;;;10.90;48.90;;;;;;5056605;28;20298;-58
2023/06/04 00:53:39;;;;;;;4.43;2.83;;;10.80;48.90;;;;;;5056129;28;20182;-58
2023/06/04 00:56:06;;;;;;;5.53;4.60;;;10.80;49.20;;;;;;5056409;28;20209;-60
2023/06/04 00:58:39;;;;;;;3.53;2.17;;;10.70;49.30;;;;;;5056038;28;20938;-59
2023/06/04 01:01:17;;;;;;;4.67;3.33;;;10.70;49.40;;;;;;5056247;28;20470;-58
2023/06/04 01:03:50;;;;;;;4.53;2.60;;;10.60;49.60;;;;;;5056135;28;20435;-58
2023/06/04 01:06:23;;;;;;;2.57;2.10;;;10.60;49.80;;;;;;5056179;28;20439;-60
2023/06/04 01:08:54;;;;;;;2.07;1.87;;;10.60;50.00;;;;;;5056213;28;20432;-59
2023/06/04 01:11:32;;;;;;;1.90;1.70;;;10.50;50.10;;;;;;5056060;28;20475;-59
2023/06/04 01:14:00;;;;;;;2.75;1.50;;;10.50;50.20;;;;;;5056239;28;20235;-59
2023/06/04 01:16:29;;;;;;;5.05;2.05;;;10.50;50.40;;;;;;5056100;28;20232;-60
2023/06/04 01:18:59;;;;;;;5.85;1.65;;;10.40;50.50;;;;;;5056029;28;20205;-58
2023/06/04 01:21:29;;;;;;;2.70;1.60;;;10.40;50.60;;;;;;5056082;28;20244;-59
2023/06/04 01:24:01;;;;;;;2.67;1.67;;;10.30;50.70;;;;;;5056241;28;20221;-59
2023/06/04 01:26:29;;;;;;;1.40;1.30;;;10.40;51.00;;;;;;5055915;28;20260;-59
2023/06/04 01:28:57;;;;;;;1.60;1.45;;;10.30;51.10;;;;;;5056040;28;20201;-60
2023/06/04 01:31:25;;;;;;;3.10;2.00;;;10.30;51.30;;;;;;5055869;28;20287;-59
2023/06/04 01:33:53;;;;;;;3.03;1.80;;;10.20;51.40;;;;;;5055685;28;20229;-59
2023/06/04 01:36:20;;;;;;;3.03;1.95;;;10.20;51.70;;;;;;5055666;28;20202;-59
2023/06/04 01:38:47;;;;;;;3.67;1.55;;;10.20;51.80;;;;;;5054814;28;20207;-59
2023/06/04 01:41:14;;;;;;;1.88;1.35;;;10.20;51.90;;;;;;5055509;28;20224;-58
2023/06/04 01:43:41;;;;;;;1.60;1.48;;;10.20;52.10;;;;;;5055575;28;20209;-59
2023/06/04 01:46:07;;;;;;;1.83;1.40;;;10.10;52.20;;;;;;5055675;28;20202;-60
2023/06/04 01:48:36;;;;;;;1.88;1.42;;;10.10;52.40;;;;;;5055505;28;20206;-59
2023/06/04 01:51:03;;;;;;;2.20;1.63;;;10.10;52.70;;;;;;5055186;28;20615;-60
2023/06/04 01:53:30;;;;;;;3.83;1.42;;;10.00;52.80;;;;;;5055273;28;20652;-58
2023/06/04 01:55:58;;;;;;;1.45;1.25;;;10.00;53.00;;;;;;5055357;28;20198;-60
2023/06/04 01:58:27;;;;;;;2.00;1.80;;;10.00;53.20;;;;;;5055669;28;20221;-59
2023/06/04 02:00:54;;;;;;;1.77;1.65;;;9.90;54.20;;;;;;5054935;28;20683;-60
2023/06/04 02:03:22;;;;;;;1.95;1.55;;;9.90;54.50;;;;;;5055318;28;20660;-60
2023/06/04 02:05:50;;;;;;;1.90;1.30;;;9.90;54.70;;;;;;5055284;28;20206;-60
2023/06/04 02:08:18;;;;;;;2.00;1.52;;;9.90;54.90;;;;;;5055052;28;20205;-59
2023/06/04 02:10:46;;;;;;;2.30;1.85;;;9.80;55.10;;;;;;5055232;28;20202;-60
2023/06/04 02:13:13;;;;;;;2.00;1.50;;;9.80;55.80;;;;;;5055225;28;20205;-59
2023/06/04 02:15:40;;;;;;;2.03;1.40;;;9.80;55.40;;;;;;5055119;28;20231;-60
2023/06/04 02:18:16;;;;;;;2.00;1.30;;;9.80;55.60;;;;;;5055517;28;20225;-59
2023/06/04 02:20:43;;;;;;;2.40;2.15;;;9.80;55.80;;;;;;5055304;28;20277;-59
2023/06/04 02:23:11;;;;;;;1.50;1.40;;;9.80;55.90;;;;;;5054973;28;20208;-58
2023/06/04 02:25:38;;;;;;;1.65;1.42;;;9.80;56.10;;;;;;5054948;28;20201;-60
2023/06/04 02:28:05;;;;;;;1.50;1.40;;;9.80;56.20;;;;;;5054939;28;20293;-60
2023/06/04 02:30:32;;;;;;;2.05;1.85;;;9.80;56.30;;;;;;5054410;28;20691;-60
2023/06/04 02:33:00;;;;;;;3.53;1.70;;;9.80;56.50;;;;;;5054439;28;20222;-59
2023/06/04 02:35:27;;;;;;;2.72;2.20;;;9.80;56.60;;;;;;5054294;28;20578;-61
2023/06/04 02:37:56;;;;;;;2.40;1.50;;;9.80;56.80;;;;;;5054316;28;20581;-60
2023/06/04 02:40:24;;;;;;;2.03;1.55;;;9.70;56.90;;;;;;5054177;28;20263;-61
2023/06/04 02:42:51;;;;;;;3.95;2.10;;;9.70;57.20;;;;;;5054298;28;20229;-60
2023/06/04 02:45:18;;;;;;;6.75;1.90;;;9.70;57.50;;;;;;5054130;28;20202;-60
2023/06/04 02:47:45;;;;;;;2.25;1.45;;;9.70;57.70;;;;;;5054300;28;20204;-59
2023/06/04 02:50:12;;;;;;;1.85;1.40;;;9.70;57.90;;;;;;5053343;28;20228;-59
2023/06/04 02:52:39;;;;;;;1.60;1.40;;;9.70;58.00;;;;;;5093044;22;20229;-58
2023/06/04 02:55:08;;;;;;;3.97;2.10;;;9.80;58.10;;;;;;5075429;28;20259;-58
2023/06/04 02:57:36;;;;;;;1.90;1.70;;;9.70;58.20;;;;;;5076098;28;20216;-58
2023/06/04 03:00:11;;;;;;;3.55;1.73;;;9.80;58.40;;;;;;5075915;28;20214;-57
2023/06/04 03:02:38;;;;;;;2.00;1.80;;;9.80;58.50;;;;;;5076190;28;20232;-58
2023/06/04 03:05:06;;;;;;;2.90;1.88;;;9.80;58.30;;;;;;5075403;28;20209;-58
2023/06/04 03:07:33;;;;;;;3.88;1.80;;;9.90;58.40;;;;;;5075911;28;20197;-58
2023/06/04 03:09:59;;;;;;;2.88;2.15;;;9.80;58.40;;;;;;5075816;28;20197;-56
2023/06/04 03:12:26;;;;;;;3.10;1.90;;;9.90;58.60;;;;;;5075241;28;20603;-58
2023/06/04 03:14:55;;;;;;;2.88;1.77;;;9.80;58.70;;;;;;5075584;28;20227;-57
2023/06/04 03:17:22;;;;;;;2.38;2.17;;;9.80;58.90;;;;;;5075270;28;20221;-57
2023/06/04 03:19:48;;;;;;;2.20;1.70;;;9.80;59.20;;;;;;5075447;28;20212;-58
2023/06/04 03:22:15;;;;;;;2.78;1.80;;;9.70;59.40;;;;;;5076117;28;20371;-58
2023/06/04 03:24:42;;;;;;;4.90;3.03;;;9.70;59.80;;;;;;5076464;28;20227;-57
2023/06/04 03:27:10;;;;;;;3.78;2.45;;;9.70;60.10;;;;;;5079358;28;20193;-56
2023/06/04 03:29:37;;;;;;;4.20;2.60;;;9.80;60.50;;;;;;5079177;28;20208;-57
2023/06/04 03:32:07;;;;;;;3.25;2.30;;;9.80;60.60;;;;;;5079032;28;20221;-58
2023/06/04 03:34:34;;;;;;;4.35;2.22;;;9.90;60.80;;;;;;5078143;28;20205;-58
2023/06/04 03:37:01;;;;;;;5.20;2.20;;;9.90;60.80;;;;;;5077817;28;20304;-58
2023/06/04 03:39:27;;;;;;;3.40;2.00;;;9.90;60.80;;;;;;5076479;28;20208;-58
2023/06/04 03:41:55;;;;;;;4.80;2.60;;;10.00;60.00;;;;;;5074370;28;20232;-57
2023/06/04 03:44:23;;;;;;;4.78;3.08;;;10.00;60.20;;;;;;5073431;28;20689;-58
2023/06/04 03:46:50;;;;;;;2.72;2.22;;;10.10;60.20;;;;;;5073797;28;20204;-57
2023/06/04 03:49:19;;;;;;;2.42;1.92;;;10.20;60.20;;;;;;5073411;28;20678;-59
2023/06/04 03:51:46;;;;;;;4.82;2.40;;;10.20;60.10;;;;;;5073438;28;20232;-59
2023/06/04 03:54:16;;;;;;;3.17;1.93;;;10.40;60.10;;;;;;5074187;28;20313;-59
2023/06/04 03:56:43;;;;;;;2.77;2.40;;;10.80;60.10;;;;;;5073300;28;20845;-58
2023/06/04 03:59:10;;;;;;;4.70;2.63;;;11.30;59.20;;;;;;5073542;28;20515;-58
2023/06/04 04:01:37;;;;;;;5.40;1.97;;;11.90;58.10;;;;;;5073041;28;20509;-58
2023/06/04 04:04:04;;;;;;;4.77;2.63;;;12.50;56.80;;;;;;5073283;28;20453;-58
2023/06/04 04:06:33;;;;;;;2.47;1.93;;;13.00;55.60;;;;;;5073274;28;20505;-58
2023/06/04 04:11:46;;;;;;;3.97;2.72;;;13.80;53.10;;;;;;5103757;27;1278265;-58
2023/06/04 04:14:13;;;;;;;3.97;2.63;;;14.10;52.70;;;;;;5132099;28;20672;-59
2023/06/04 04:16:39;;;;;;;2.30;2.10;;;14.30;52.00;;;;;;5132421;28;20445;-58
2023/06/04 04:19:07;;;;;;;3.80;2.80;;;14.50;51.70;;;;;;5132372;28;20436;-57
2023/06/04 04:21:36;;;;;;;2.73;2.47;;;14.70;51.20;;;;;;5132262;27;20844;-58
2023/06/04 04:24:03;;;;;;;2.80;2.23;;;14.90;50.90;;;;;;5132170;28;20957;-58
2023/06/04 04:26:30;;;;;;;4.30;3.10;;;15.20;50.50;;;;;;5132119;28;20445;-58
2023/06/04 04:28:59;;;;;;;5.37;2.97;;;15.50;49.80;;;;;;5133333;28;20812;-60
2023/06/04 04:31:27;;;;;;;2.67;2.20;;;15.80;49.30;;;;;;5143134;27;20541;-58
2023/06/04 04:33:56;;;;;;;2.40;2.07;;;16.00;48.70;;;;;;5143757;28;20441;-58
2023/06/04 04:36:23;;;;;;;2.77;2.40;;;16.00;48.20;;;;;;5135971;28;20926;-58
2023/06/04 04:38:54;;;;;;;3.73;2.43;;;16.10;48.10;;;;;;5133457;28;20441;-58
2023/06/04 04:41:20;;;;;;;3.47;2.10;;;16.30;47.80;;;;;;5132524;27;20461;-58
2023/06/04 04:43:47;;;;;;;3.30;2.10;;;16.40;47.40;;;;;;5131891;28;20444;-57
2023/06/04 04:46:15;;;;;;;3.70;2.20;;;16.40;47.00;;;;;;5132001;28;20437;-58
2023/06/04 04:48:42;;;;;;;3.20;1.80;;;16.30;47.00;;;;;;5132318;28;20436;-58
2023/06/04 04:51:09;;;;;;;4.70;1.97;;;16.20;46.70;;;;;;5132054;27;20542;-58
2023/06/04 04:53:36;;;;;;;2.80;1.70;;;16.20;46.70;;;;;;5132209;28;20445;-57
2023/06/04 04:56:03;;;;;;;3.77;1.80;;;16.20;46.60;;;;;;5132409;28;20440;-57
2023/06/04 04:58:30;;;;;;;2.90;1.50;;;16.20;46.30;;;;;;5132249;28;20451;-58
2023/06/04 05:00:56;;;;;;;1.97;1.77;;;16.20;46.00;;;;;;5131816;27;20441;-59
2023/06/04 05:03:24;;;;;;;2.07;1.70;;;16.30;45.90;;;;;;5133052;28;20439;-58
2023/06/04 05:05:51;;;;;;;1.60;1.30;;;16.40;46.30;;;;;;5132346;28;20444;-58
2023/06/04 05:08:18;;;;;;;2.00;1.80;;;16.50;45.50;;;;;;5132153;28;20451;-59
2023/06/04 05:10:45;;;;;;;2.07;1.70;;;16.50;45.20;;;;;;5131972;28;20476;-58
2023/06/04 05:13:11;;;;;;;1.87;1.67;;;16.50;45.20;;;;;;5132020;27;20978;-59
2023/06/04 05:15:39;;;;;;;3.10;1.60;;;16.50;45.20;;;;;;5131938;28;20518;-57
2023/06/04 05:18:07;;;;;;;1.90;1.70;;;16.50;45.00;;;;;;5132008;28;20441;-57
2023/06/04 05:20:37;;;;;;;2.10;1.90;;;16.60;44.90;;;;;;5131958;28;20801;-58
2023/06/04 05:23:04;;;;;;;1.67;1.57;;;16.60;44.80;;;;;;5118603;28;20903;-59
2023/06/04 05:25:31;;;;;;;1.87;1.30;;;16.80;44.80;;;;;;5117794;28;21035;-60
2023/06/04 05:27:58;;;;;;;3.87;1.60;;;16.90;44.80;;;;;;5117498;28;20482;-58
2023/06/04 05:30:25;;;;;;;2.00;1.43;;;17.00;44.30;;;;;;5117904;28;20479;-59
2023/06/04 05:32:53;;;;;;;2.00;1.80;;;17.10;44.10;;;;;;5118545;28;20463;-58
2023/06/04 05:35:20;;;;;;;4.50;1.70;;;17.00;43.70;;;;;;5117970;28;20455;-58
2023/06/04 05:37:53;;;;;;;2.07;1.87;;;16.80;43.70;;;;;;5119557;28;20468;-59
2023/06/04 05:40:21;;;;;;;2.40;1.97;;;16.70;43.90;;;;;;5125483;28;20435;-59
2023/06/04 05:42:49;;;;;;;1.63;1.50;;;16.60;44.00;;;;;;5127328;28;20461;-59
2023/06/04 05:45:16;;;;;;;4.13;1.73;;;16.60;44.00;;;;;;5131132;28;20438;-58
2023/06/04 05:47:42;;;;;;;2.20;1.80;;;16.60;43.60;;;;;;5124150;28;20449;-60
2023/06/04 05:50:10;;;;;;;2.40;1.70;;;16.60;43.40;;;;;;5120170;28;20474;-59
2023/06/04 05:52:37;;;;;;;1.90;1.63;;;16.40;43.60;;;;;;5118966;28;20463;-58
2023/06/04 05:55:07;;;;;;;2.40;1.77;;;16.50;44.00;;;;;;5117291;28;20535;-58
2023/06/04 05:57:34;;;;;;;1.60;1.40;;;16.50;43.70;;;;;;5117749;28;20434;-58
2023/06/04 06:00:01;;;;;;;3.30;1.83;;;16.50;43.70;;;;;;5117454;28;20439;-59
2023/06/04 06:02:27;;;;;;;2.73;1.70;;;16.40;43.70;;;;;;5118051;28;20461;-60
2023/06/04 06:04:54;;;;;;;1.60;1.33;;;16.40;44.00;;;;;;5117147;28;20450;-58
2023/06/04 06:07:21;;;;;;;1.50;1.30;;;16.50;44.20;;;;;;5117177;28;20438;-58
2023/06/04 06:09:48;;;;;;;2.30;1.43;;;16.60;44.10;;;;;;5121440;28;20792;-58
2023/06/04 06:12:16;;;;;;;2.23;1.70;;;16.80;43.60;;;;;;5122307;28;20480;-61
2023/06/04 06:14:42;;;;;;;3.50;2.03;;;16.90;43.30;;;;;;5123835;28;20448;-58
2023/06/04 06:17:10;;;;;;;2.10;1.50;;;17.00;43.00;;;;;;5122789;28;20443;-58
2023/06/04 06:19:37;;;;;;;2.30;1.53;;;17.00;42.80;;;;;;5121800;28;20459;-59
2023/06/04 06:22:04;;;;;;;1.53;1.40;;;17.00;42.70;;;;;;5120940;28;20462;-58
2023/06/04 06:24:31;;;;;;;2.30;1.80;;;17.00;42.60;;;;;;5117198;28;20937;-60
2023/06/04 06:26:58;;;;;;;2.20;2.00;;;17.00;42.50;;;;;;5128915;28;20517;-59
2023/06/04 06:29:26;;;;;;;3.47;1.63;;;17.00;42.40;;;;;;5128123;28;20448;-59
2023/06/04 06:31:53;;;;;;;2.43;1.50;;;16.80;42.30;;;;;;5116846;28;20485;-59
2023/06/04 06:34:19;;;;;;;2.10;1.60;;;16.70;42.20;;;;;;5115554;28;20457;-58
2023/06/04 06:36:47;;;;;;;2.23;1.80;;;16.60;42.20;;;;;;5116484;28;20969;-59
2023/06/04 06:39:13;;;;;;;2.23;1.63;;;16.60;42.10;;;;;;5117563;28;20886;-60
2023/06/04 06:41:40;;;;;;;2.57;1.40;;;16.50;42.00;;;;;;5116930;28;20840;-59
2023/06/04 06:44:07;;;;;;;1.97;1.77;;;16.50;42.10;;;;;;5117360;28;20444;-58
2023/06/04 06:46:35;;;;;;;1.57;1.47;;;16.60;42.10;;;;;;5117096;28;20441;-59
2023/06/04 06:49:02;;;;;;;3.47;2.00;;;16.50;42.00;;;;;;5117098;28;20955;-60
2023/06/04 06:51:29;;;;;;;2.17;1.70;;;16.50;42.10;;;;;;5117738;28;20485;-60
2023/06/04 06:53:55;;;;;;;3.33;1.80;;;16.40;42.20;;;;;;5117306;28;21026;-59
2023/06/04 06:56:22;;;;;;;4.60;1.73;;;16.50;42.40;;;;;;5117798;28;20452;-59
2023/06/04 06:58:49;;;;;;;2.17;1.67;;;16.50;42.30;;;;;;5117932;28;20441;-58
2023/06/04 07:01:16;;;;;;;2.17;1.83;;;16.60;42.20;;;;;;5119469;28;20552;-59
2023/06/04 07:03:44;;;;;;;1.80;1.43;;;16.70;42.00;;;;;;5118887;28;20441;-59
2023/06/04 07:06:11;;;;;;;3.10;1.77;;;16.90;41.90;;;;;;5117049;28;20444;-59
2023/06/04 07:08:38;;;;;;;3.23;1.70;;;16.90;41.70;;;;;;5117303;28;20430;-58
2023/06/04 07:11:05;;;;;;;3.27;1.60;;;17.10;41.60;;;;;;5119926;28;20481;-58
2023/06/04 07:13:34;;;;;;;2.33;1.10;;;17.20;41.20;;;;;;5123823;28;20525;-59
2023/06/04 07:16:02;;;;;;;2.40;1.50;;;17.30;41.00;;;;;;5123625;28;20514;-59
2023/06/04 07:18:28;;;;;;;2.37;1.40;;;17.40;40.90;;;;;;5121824;28;20448;-61
2023/06/04 07:20:57;;;;;;;2.87;1.70;;;17.50;40.90;;;;;;5121165;28;20501;-57
2023/06/04 07:23:24;;;;;;;1.70;1.43;;;17.50;40.90;;;;;;5119632;28;20802;-59
2023/06/04 07:25:50;;;;;;;2.90;1.60;;;17.60;41.00;;;;;;5123577;28;20633;-59
2023/06/04 07:28:17;;;;;;;4.20;1.70;;;17.70;41.10;;;;;;5120585;28;20513;-59
2023/06/04 07:30:45;;;;;;;2.73;1.40;;;17.90;41.00;;;;;;5119203;28;20477;-58
2023/06/04 07:33:12;;;;;;;3.27;1.63;;;18.00;40.70;;;;;;5119129;28;20991;-58
2023/06/04 07:35:39;;;;;;;2.77;1.70;;;18.10;40.40;;;;;;5118214;28;20445;-60
2023/06/04 07:38:08;;;;;;;6.10;1.90;;;18.30;40.50;;;;;;5117479;28;20448;-59
2023/06/04 07:40:34;;;;;;;2.00;1.33;;;18.40;40.40;;;;;;5117350;28;20447;-59
2023/06/04 07:43:01;;;;;;;1.67;1.30;;;18.60;40.30;;;;;;5118124;28;20458;-59
2023/06/04 07:45:29;;;;;;;2.10;1.40;;;18.70;40.30;;;;;;5116835;28;20441;-60
2023/06/04 07:47:56;;;;;;;2.03;1.50;;;18.80;40.20;;;;;;5118414;28;20446;-59
2023/06/04 07:50:23;;;;;;;2.80;1.80;;;18.90;39.60;;;;;;5117586;28;20441;-59
2023/06/04 07:52:49;;;;;;;1.97;1.60;;;19.00;39.40;;;;;;5116984;28;20499;-59
2023/06/04 07:55:18;;;;;;;2.07;1.43;;;19.00;39.20;;;;;;5117253;28;20452;-60
2023/06/04 07:57:45;;;;;;;2.13;1.43;;;19.10;39.10;;;;;;5117350;28;20456;-59
2023/06/04 08:00:14;;;;;;;2.50;1.40;;;19.20;39.00;;;;;;5116964;28;20473;-59
2023/06/04 08:02:41;;;;;;;1.47;1.13;;;19.30;39.00;;;;;;5117490;28;21204;-59
2023/06/04 08:05:08;;;;;;;2.43;1.40;;;19.30;38.90;;;;;;5118295;28;20445;-60
2023/06/04 08:07:35;;;;;;;2.50;1.40;;;19.20;38.90;;;;;;5117927;28;20449;-60
2023/06/04 08:10:01;;;;;;;2.73;1.47;;;19.20;39.00;;;;;;5119348;28;20977;-58
2023/06/04 08:12:30;;;;;;;2.07;1.37;;;19.40;38.70;;;;;;5119302;28;20557;-59
2023/06/04 08:14:57;;;;;;;1.60;1.30;;;19.60;38.30;;;;;;5118504;28;20441;-59
2023/06/04 08:17:24;;;;;;;2.40;1.63;;;19.80;37.90;;;;;;5116966;28;20939;-58
2023/06/04 08:19:51;;;;;;;1.60;1.20;;;19.90;37.70;;;;;;5116600;28;20441;-58
2023/06/04 08:22:18;;;;;;;5.53;1.87;;;20.00;37.30;;;;;;5116475;28;20457;-58
2023/06/04 08:24:44;;;;;;;3.97;1.70;;;20.20;36.90;;;;;;5117527;28;20532;-57
2023/06/04 08:27:11;;;;;;;3.13;1.20;;;20.30;36.50;;;;;;5116361;28;20506;-58
2023/06/04 08:29:40;;;;;;;2.00;1.23;;;20.40;36.20;;;;;;5117272;28;20953;-58
2023/06/04 08:32:07;;;;;;;3.27;1.60;;;20.30;36.10;;;;;;5117189;28;20485;-58
2023/06/04 08:34:34;;;;;;;4.70;2.00;;;20.40;36.10;;;;;;5115606;28;20481;-59
2023/06/04 08:37:01;;;;;;;3.10;1.57;;;20.50;35.90;;;;;;5116185;28;20452;-59
2023/06/04 08:39:28;;;;;;;2.37;1.30;;;20.70;35.40;;;;;;5117217;28;20441;-60
2023/06/04 08:42:00;;;;;;;4.77;2.00;;;20.90;34.90;;;;;;5116249;28;20867;-59
2023/06/04 08:44:28;;;;;;;1.80;1.50;;;21.10;34.20;;;;;;5116423;28;20423;-58
2023/06/04 08:47:05;;;;;;;1.67;1.43;;;21.10;33.70;;;;;;5117068;28;20933;-58
2023/06/04 08:49:35;;;;;;;1.87;1.37;;;21.00;33.30;;;;;;5117988;28;20437;-59
2023/06/04 08:52:02;;;;;;;1.77;1.40;;;21.10;33.00;;;;;;5117167;28;20477;-60
2023/06/04 08:54:30;;;;;;;5.00;1.47;;;21.20;32.60;;;;;;5116737;28;20458;-58
2023/06/04 08:56:57;;;;;;;1.87;1.40;;;21.20;32.40;;;;;;5117119;28;20456;-58
2023/06/04 09:01:54;;;;;;;2.17;1.40;;;21.40;32.20;;;;;;5035190;28;20443;-59
2023/06/04 09:04:22;;;;;;;1.47;1.30;;;21.50;32.50;;;;;;5036777;28;20526;-61
2023/06/04 09:06:50;;;;;;;1.70;1.50;;;21.60;31.40;;;;;;5036657;28;20548;-61
2023/06/04 09:09:18;;;;;;;2.17;1.20;;;21.60;30.90;;;;;;5036857;28;20446;-61
2023/06/04 09:11:51;;;;;;;1.70;1.37;;;21.80;30.70;;;;;;5055815;28;20496;-62
2023/06/04 09:14:19;;;;;;;3.73;1.50;;;22.00;30.60;;;;;;5057309;28;20434;-58
2023/06/04 09:16:47;;;;;;;2.03;1.20;;;22.10;30.40;;;;;;5056838;28;20532;-59
2023/06/04 09:19:15;;;;;;;4.10;1.50;;;22.20;30.30;;;;;;5056602;28;20498;-60
2023/06/04 09:21:54;;;;;;;1.80;1.20;;;22.30;30.20;;;;;;5055557;28;20469;-61
2023/06/04 09:24:22;;;;;;;1.40;1.13;;;22.40;30.00;;;;;;5055564;28;20435;-62
2023/06/04 09:26:50;;;;;;;3.03;1.37;;;22.40;29.60;;;;;;5058732;28;20444;-60
2023/06/04 09:29:17;;;;;;;3.00;1.37;;;22.40;29.40;;;;;;5058024;28;20468;-60
2023/06/04 09:31:46;;;;;;;3.00;1.40;;;22.40;29.50;;;;;;5055336;28;20501;-60
2023/06/04 09:34:13;;;;;;;1.90;1.70;;;22.40;29.50;;;;;;5055623;28;20596;-58
2023/06/04 09:36:40;;;;;;;2.47;1.43;;;22.40;29.50;;;;;;5056348;28;20444;-60
2023/06/04 09:39:17;;;;;;;1.47;1.30;;;22.40;30.00;;;;;;5056445;28;20941;-60
2023/06/04 09:41:44;;;;;;;1.87;1.40;;;22.40;29.50;;;;;;5056157;28;20474;-60
2023/06/04 09:44:12;;;;;;;1.67;1.43;;;22.50;29.50;;;;;;5056107;28;20454;-59
2023/06/04 09:46:38;;;;;;;2.33;1.40;;;22.60;29.50;;;;;;5055531;28;20461;-60
2023/06/04 09:49:06;;;;;;;1.40;1.13;;;22.60;29.40;;;;;;5056134;28;20826;-59
2023/06/04 09:51:34;;;;;;;1.60;1.10;;;22.60;29.40;;;;;;5054840;28;20482;-59
2023/06/04 09:54:02;;;;;;;1.60;1.27;;;22.40;29.30;;;;;;5055461;28;20451;-60
2023/06/04 09:56:30;;;;;;;2.07;1.40;;;22.30;29.50;;;;;;5054693;28;20963;-59
2023/06/04 09:59:00;;;;;;;2.17;1.03;;;22.30;29.60;;;;;;5055939;28;20861;-61
2023/06/04 10:01:28;;;;;;;2.03;1.20;;;22.40;29.50;;;;;;5055680;28;20517;-61
2023/06/04 10:03:56;;;;;;;1.37;1.20;;;22.50;29.30;;;;;;5055958;28;20509;-60
2023/06/04 10:06:24;;;;;;;1.60;1.30;;;22.40;29.30;;;;;;5055668;28;20549;-57
2023/06/04 10:08:52;;;;;;;1.93;1.40;;;22.30;29.30;;;;;;5055008;28;20463;-57
2023/06/04 10:11:26;;;;;;;4.33;2.40;;;22.40;29.20;;;;;;5054216;28;20467;-62
2023/06/04 10:14:01;;;;;;;3.00;1.13;;;22.60;28.90;;;;;;5055054;28;20438;-60
2023/06/04 10:16:30;;;;;;;3.00;1.30;;;22.80;28.90;;;;;;5055486;28;20438;-60
2023/06/04 10:18:57;;;;;;;1.90;1.27;;;22.80;28.60;;;;;;5055849;28;20446;-60
2023/06/04 10:21:25;;;;;;;2.13;1.37;;;22.80;28.40;;;;;;5054988;28;20467;-61
2023/06/04 10:23:52;;;;;;;1.50;1.20;;;22.70;28.40;;;;;;5055152;28;20458;-60
2023/06/04 10:26:19;;;;;;;2.33;1.10;;;22.80;28.30;;;;;;5054854;28;20447;-59
2023/06/04 10:28:46;;;;;;;2.20;1.30;;;22.80;28.30;;;;;;5054984;28;20448;-61
2023/06/04 10:31:16;;;;;;;2.57;1.40;;;22.80;28.20;;;;;;5054772;28;20471;-59
2023/06/04 10:33:43;;;;;;;1.67;1.37;;;23.00;28.20;;;;;;5055364;28;20440;-59
2023/06/04 10:36:20;;;;;;;2.07;0.80;;;23.10;28.10;;;;;;5054919;28;20463;-60
2023/06/04 10:38:47;;;;;;;2.97;1.47;;;23.20;27.80;;;;;;5055153;28;20442;-60
2023/06/04 10:41:16;;;;;;;2.40;1.20;;;23.10;27.70;;;;;;5055448;28;20542;-62
2023/06/04 10:43:43;;;;;;;2.73;1.70;;;23.20;27.60;;;;;;5056554;28;20492;-61
2023/06/04 10:46:15;;;;;;;1.40;0.90;;;23.30;26.90;;;;;;5054779;28;20444;-59
2023/06/04 10:48:49;;;;;;;2.60;1.33;;;23.40;26.70;;;;;;5054744;28;20439;-59
2023/06/04 10:51:16;;;;;;;1.50;1.23;;;23.50;26.40;;;;;;5054275;28;20542;-59
2023/06/04 10:53:44;;;;;;;1.87;1.20;;;23.50;26.20;;;;;;5054544;28;20485;-56
2023/06/04 10:56:10;;;;;;;1.60;1.10;;;23.60;26.20;;;;;;5055901;28;20477;-59
2023/06/04 10:58:37;;;;;;;1.60;1.30;;;23.60;26.20;;;;;;5055958;28;20436;-58
2023/06/04 11:01:04;;;;;;;2.33;1.23;;;23.60;26.10;;;;;;5054908;28;20915;-59
2023/06/04 11:03:39;;;;;;;1.90;1.13;;;23.50;26.00;;;;;;5059503;28;20454;-59
2023/06/04 11:06:17;;;;;;;3.63;1.50;;;23.60;26.20;;;;;;5057875;28;20448;-58
2023/06/04 11:08:44;;;;;;;2.33;1.60;;;23.70;26.30;;;;;;5054705;28;20442;-59
2023/06/04 11:11:13;;;;;;;2.30;1.50;;;23.80;26.30;;;;;;5055281;28;20476;-60
2023/06/04 11:13:40;;;;;;;2.37;1.10;;;23.80;26.10;;;;;;5054120;28;20468;-59
2023/06/04 11:16:17;;;;;;;1.53;1.23;;;23.80;26.10;;;;;;5054925;28;20446;-59
2023/06/04 11:18:55;;;;;;;3.00;1.53;;;23.80;26.00;;;;;;5055065;28;20428;-61
2023/06/04 11:21:22;;;;;;;1.30;1.20;;;23.90;26.10;;;;;;5054530;28;20472;-61
2023/06/04 11:23:49;;;;;;;1.23;1.10;;;24.00;25.80;;;;;;5054442;28;20531;-60
2023/06/04 11:26:17;;;;;;;2.70;1.23;;;24.10;25.40;;;;;;5053686;28;20970;-60
2023/06/04 11:28:45;;;;;;;1.13;1.03;;;24.10;25.20;;;;;;5053896;28;20456;-59
2023/06/04 11:31:12;;;;;;;1.87;1.67;;;24.00;25.10;;;;;;5054735;28;20575;-61
2023/06/04 11:33:44;;;;;;;1.63;1.30;;;24.00;25.20;;;;;;5054305;28;20477;-59
2023/06/04 11:36:11;;;;;;;3.07;1.40;;;24.10;25.40;;;;;;5056134;28;20444;-62
2023/06/04 11:38:38;;;;;;;3.50;2.07;;;24.20;25.40;;;;;;5053898;28;20436;-60
2023/06/04 11:41:05;;;;;;;3.83;1.50;;;24.20;25.40;;;;;;5053460;28;20472;-60
2023/06/04 11:43:38;;;;;;;3.30;1.50;;;24.30;25.50;;;;;;5053341;28;20445;-60
2023/06/04 11:46:07;;;;;;;2.43;1.63;;;24.40;25.50;;;;;;5053810;28;20437;-63
2023/06/04 11:48:34;;;;;;;1.93;1.10;;;24.60;25.40;;;;;;5053902;28;20448;-62
2023/06/04 11:51:09;;;;;;;3.73;1.20;;;24.70;25.10;;;;;;5054325;28;20473;-61
2023/06/04 11:53:37;;;;;;;3.90;1.63;;;24.90;25.00;;;;;;5053281;28;20479;-62
2023/06/04 11:56:05;;;;;;;1.60;1.50;;;25.10;24.60;;;;;;5053123;28;20445;-62
2023/06/04 11:58:33;;;;;;;1.60;1.20;;;25.60;24.20;;;;;;5052792;28;20440;-59
2023/06/04 12:01:00;;;;;;;1.67;1.40;;;26.10;23.50;;;;;;5052793;28;20996;-61
2023/06/04 12:03:38;;;;;;;2.60;1.10;;;26.50;23.20;;;;;;5053150;28;20504;-61
2023/06/04 12:06:17;;;;;;;1.37;1.20;;;27.00;22.90;;;;;;5052753;28;20893;-62
2023/06/04 12:08:48;;;;;;;1.10;1.00;;;27.30;22.60;;;;;;5053376;28;21018;-62
2023/06/04 12:11:27;;;;;;;3.50;1.50;;;27.40;22.30;;;;;;5052260;28;21031;-63
2023/06/04 12:13:55;;;;;;;2.00;1.60;;;27.40;22.00;;;;;;5052392;28;20992;-61
2023/06/04 12:16:22;;;;;;;1.20;1.10;;;27.50;21.80;;;;;;5053101;28;20446;-60
2023/06/04 12:18:50;;;;;;;3.17;1.73;;;27.80;21.50;;;;;;5053242;28;20451;-60
2023/06/04 12:21:26;;;;;;;4.87;3.87;;;28.00;21.30;;;;;;5052367;28;20498;-60
2023/06/04 12:23:55;;;;;;;2.20;1.20;;;28.10;21.00;;;;;;5054003;28;20531;-62
2023/06/04 12:26:28;;;;;;;1.93;1.20;;;28.10;20.60;;;;;;5052836;28;20836;-61
2023/06/04 12:29:02;;;;;;;2.40;1.13;;;28.10;20.50;;;;;;5053684;28;20433;-61
2023/06/04 12:31:31;;;;;;;2.20;1.30;;;28.10;20.50;;;;;;5053589;28;20561;-61
2023/06/04 12:33:59;;;;;;;2.10;1.27;;;28.20;20.60;;;;;;5057880;28;20502;-61
2023/06/04 12:36:28;;;;;;;1.43;1.00;;;28.20;20.60;;;;;;5057501;28;20815;-62
2023/06/04 12:39:00;;;;;;;1.23;1.13;;;27.90;20.60;;;;;;5057424;28;20453;-61
2023/06/04 12:41:27;;;;;;;2.97;1.10;;;27.50;20.80;;;;;;5057804;28;20466;-61
2023/06/04 12:43:54;;;;;;;1.77;1.10;;;26.90;21.00;;;;;;5057460;28;20450;-60
2023/06/04 12:46:21;;;;;;;3.20;1.40;;;26.60;21.50;;;;;;5066032;28;20452;-62
2023/06/04 12:48:48;;;;;;;1.53;1.10;;;26.30;21.70;;;;;;5059207;28;20459;-62
2023/06/04 12:51:15;;;;;;;1.80;0.90;;;26.00;21.90;;;;;;5057822;28;20559;-62
2023/06/04 12:53:43;;;;;;;2.13;1.30;;;25.80;22.10;;;;;;5057404;28;20476;-61
2023/06/04 12:56:11;;;;;;;1.53;1.00;;;25.70;22.20;;;;;;5056896;28;20454;-62
2023/06/04 12:58:38;;;;;;;2.20;1.43;;;25.60;22.20;;;;;;5056938;28;20501;-61